sensor_id;sensor_type;location;lat;lon;timestamp;P1;durP1;ratioP1;P2;durP2;ratioP2
60038;SDS011;45916;52.734;6.544;2023-03-05T00:01:32;7.20;;;2.95;;
60038;SDS011;45916;52.734;6.544;2023-03-05T00:03:59;9.65;;;3.17;;
60038;SDS011;45916;52.734;6.544;2023-03-05T00:06:27;9.57;;;3.60;;
60038;SDS011;45916;52.734;6.544;2023-03-05T00:08:54;9.02;;;3.13;;
60038;SDS011;45916;52.734;6.544;2023-03-05T00:11:22;9.93;;;3.00;;
60038;SDS011;45916;52.734;6.544;2023-03-05T00:13:52;9.73;;;3.20;;
60038;SDS011;45916;52.734;6.544;2023-03-05T00:16:19;6.63;;;2.25;;
60038;SDS011;45916;52.734;6.544;2023-03-05T00:18:45;7.90;;;3.53;;
60038;SDS011;45916;52.734;6.544;2023-03-05T00:21:21;7.75;;;2.72;;
60038;SDS011;45916;52.734;6.544;2023-03-05T00:23:49;8.63;;;2.53;;
60038;SDS011;45916;52.734;6.544;2023-03-05T00:26:20;8.18;;;2.78;;
60038;SDS011;45916;52.734;6.544;2023-03-05T00:28:48;9.27;;;3.50;;
60038;SDS011;45916;52.734;6.544;2023-03-05T00:31:19;9.57;;;2.70;;
60038;SDS011;45916;52.734;6.544;2023-03-05T00:33:53;7.28;;;2.92;;
60038;SDS011;45916;52.734;6.544;2023-03-05T00:36:21;7.65;;;2.55;;
60038;SDS011;45916;52.734;6.544;2023-03-05T00:38:48;6.75;;;2.35;;
60038;SDS011;45916;52.734;6.544;2023-03-05T00:41:14;5.85;;;2.15;;
60038;SDS011;45916;52.734;6.544;2023-03-05T00:43:40;10.43;;;3.22;;
60038;SDS011;45916;52.734;6.544;2023-03-05T00:46:06;8.35;;;2.65;;
60038;SDS011;45916;52.734;6.544;2023-03-05T00:48:31;8.50;;;3.05;;
60038;SDS011;45916;52.734;6.544;2023-03-05T00:50:57;9.40;;;3.20;;
60038;SDS011;45916;52.734;6.544;2023-03-05T00:53:23;6.97;;;2.63;;
60038;SDS011;45916;52.734;6.544;2023-03-05T00:55:48;8.93;;;2.58;;
60038;SDS011;45916;52.734;6.544;2023-03-05T00:58:14;7.43;;;3.05;;
60038;SDS011;45916;52.734;6.544;2023-03-05T01:00:40;8.10;;;2.83;;
60038;SDS011;45916;52.734;6.544;2023-03-05T01:03:05;8.15;;;3.22;;
60038;SDS011;45916;52.734;6.544;2023-03-05T01:05:32;8.55;;;3.20;;
60038;SDS011;45916;52.734;6.544;2023-03-05T01:07:57;8.82;;;3.72;;
60038;SDS011;45916;52.734;6.544;2023-03-05T01:10:23;8.75;;;3.58;;
60038;SDS011;45916;52.734;6.544;2023-03-05T01:12:53;9.55;;;3.50;;
60038;SDS011;45916;52.734;6.544;2023-03-05T01:15:19;9.75;;;3.60;;
60038;SDS011;45916;52.734;6.544;2023-03-05T01:17:45;7.78;;;3.22;;
60038;SDS011;45916;52.734;6.544;2023-03-05T01:20:11;7.40;;;3.95;;
60038;SDS011;45916;52.734;6.544;2023-03-05T01:22:39;8.30;;;3.70;;
60038;SDS011;45916;52.734;6.544;2023-03-05T01:25:04;8.73;;;3.15;;
60038;SDS011;45916;52.734;6.544;2023-03-05T01:27:30;9.25;;;3.35;;
60038;SDS011;45916;52.734;6.544;2023-03-05T01:29:56;7.60;;;3.58;;
60038;SDS011;45916;52.734;6.544;2023-03-05T01:32:22;9.43;;;3.30;;
60038;SDS011;45916;52.734;6.544;2023-03-05T01:34:47;10.50;;;3.80;;
60038;SDS011;45916;52.734;6.544;2023-03-05T01:37:13;12.05;;;5.40;;
60038;SDS011;45916;52.734;6.544;2023-03-05T01:39:39;9.70;;;3.83;;
60038;SDS011;45916;52.734;6.544;2023-03-05T01:42:04;10.93;;;4.18;;
60038;SDS011;45916;52.734;6.544;2023-03-05T01:44:30;7.93;;;4.25;;
60038;SDS011;45916;52.734;6.544;2023-03-05T01:46:57;8.05;;;3.33;;
60038;SDS011;45916;52.734;6.544;2023-03-05T01:49:27;8.77;;;3.78;;
60038;SDS011;45916;52.734;6.544;2023-03-05T01:54:39;10.05;;;4.20;;
60038;SDS011;45916;52.734;6.544;2023-03-05T01:57:09;8.27;;;3.38;;
60038;SDS011;45916;52.734;6.544;2023-03-05T01:59:41;11.88;;;3.33;;
60038;SDS011;45916;52.734;6.544;2023-03-05T02:02:08;7.68;;;3.53;;
60038;SDS011;45916;52.734;6.544;2023-03-05T02:04:41;11.35;;;3.90;;
60038;SDS011;45916;52.734;6.544;2023-03-05T02:07:18;7.90;;;3.22;;
60038;SDS011;45916;52.734;6.544;2023-03-05T02:09:45;10.05;;;3.47;;
60038;SDS011;45916;52.734;6.544;2023-03-05T02:12:11;7.65;;;2.83;;
60038;SDS011;45916;52.734;6.544;2023-03-05T02:14:37;12.52;;;4.28;;
60038;SDS011;45916;52.734;6.544;2023-03-05T02:17:05;10.00;;;3.13;;
60038;SDS011;45916;52.734;6.544;2023-03-05T02:19:45;9.38;;;3.15;;
60038;SDS011;45916;52.734;6.544;2023-03-05T02:22:16;7.93;;;3.67;;
60038;SDS011;45916;52.734;6.544;2023-03-05T02:24:44;9.40;;;3.58;;
60038;SDS011;45916;52.734;6.544;2023-03-05T02:27:09;11.20;;;5.18;;
60038;SDS011;45916;52.734;6.544;2023-03-05T02:29:38;10.10;;;4.80;;
60038;SDS011;45916;52.734;6.544;2023-03-05T02:32:08;8.90;;;4.10;;
60038;SDS011;45916;52.734;6.544;2023-03-05T02:34:34;8.95;;;3.83;;
60038;SDS011;45916;52.734;6.544;2023-03-05T02:37:01;7.68;;;3.88;;
60038;SDS011;45916;52.734;6.544;2023-03-05T02:39:29;10.40;;;3.90;;
60038;SDS011;45916;52.734;6.544;2023-03-05T02:41:55;8.48;;;3.08;;
60038;SDS011;45916;52.734;6.544;2023-03-05T02:44:21;9.13;;;3.47;;
60038;SDS011;45916;52.734;6.544;2023-03-05T02:46:47;8.10;;;3.15;;
60038;SDS011;45916;52.734;6.544;2023-03-05T02:49:13;7.35;;;3.05;;
60038;SDS011;45916;52.734;6.544;2023-03-05T02:51:38;8.00;;;3.30;;
60038;SDS011;45916;52.734;6.544;2023-03-05T02:54:04;8.43;;;2.80;;
60038;SDS011;45916;52.734;6.544;2023-03-05T02:56:30;9.23;;;3.15;;
60038;SDS011;45916;52.734;6.544;2023-03-05T02:58:55;9.63;;;3.05;;
60038;SDS011;45916;52.734;6.544;2023-03-05T03:01:21;8.52;;;3.25;;
60038;SDS011;45916;52.734;6.544;2023-03-05T03:03:47;10.50;;;3.03;;
60038;SDS011;45916;52.734;6.544;2023-03-05T03:06:12;13.25;;;3.47;;
60038;SDS011;45916;52.734;6.544;2023-03-05T03:08:38;6.53;;;2.58;;
60038;SDS011;45916;52.734;6.544;2023-03-05T03:11:07;10.35;;;2.53;;
60038;SDS011;45916;52.734;6.544;2023-03-05T03:13:36;7.63;;;2.40;;
60038;SDS011;45916;52.734;6.544;2023-03-05T03:16:03;7.35;;;2.60;;
60038;SDS011;45916;52.734;6.544;2023-03-05T03:18:30;6.53;;;2.22;;
60038;SDS011;45916;52.734;6.544;2023-03-05T03:20:56;6.53;;;2.47;;
60038;SDS011;45916;52.734;6.544;2023-03-05T03:23:21;6.20;;;2.47;;
60038;SDS011;45916;52.734;6.544;2023-03-05T03:25:47;8.98;;;2.35;;
60038;SDS011;45916;52.734;6.544;2023-03-05T03:28:13;6.22;;;2.28;;
60038;SDS011;45916;52.734;6.544;2023-03-05T03:30:39;5.82;;;2.40;;
60038;SDS011;45916;52.734;6.544;2023-03-05T03:33:04;7.85;;;2.35;;
60038;SDS011;45916;52.734;6.544;2023-03-05T03:35:30;6.85;;;2.20;;
60038;SDS011;45916;52.734;6.544;2023-03-05T03:37:56;7.63;;;2.30;;
60038;SDS011;45916;52.734;6.544;2023-03-05T03:40:21;5.75;;;1.67;;
60038;SDS011;45916;52.734;6.544;2023-03-05T03:42:47;6.13;;;1.73;;
60038;SDS011;45916;52.734;6.544;2023-03-05T03:45:15;6.57;;;1.67;;
60038;SDS011;45916;52.734;6.544;2023-03-05T03:47:40;4.45;;;1.95;;
60038;SDS011;45916;52.734;6.544;2023-03-05T03:50:07;6.75;;;1.75;;
60038;SDS011;45916;52.734;6.544;2023-03-05T03:52:33;5.90;;;1.85;;
60038;SDS011;45916;52.734;6.544;2023-03-05T03:54:58;6.15;;;1.90;;
60038;SDS011;45916;52.734;6.544;2023-03-05T03:57:29;5.60;;;1.65;;
60038;SDS011;45916;52.734;6.544;2023-03-05T03:59:57;4.68;;;1.63;;
60038;SDS011;45916;52.734;6.544;2023-03-05T04:02:24;5.07;;;1.60;;
60038;SDS011;45916;52.734;6.544;2023-03-05T04:04:50;5.35;;;1.70;;
60038;SDS011;45916;52.734;6.544;2023-03-05T04:07:16;6.82;;;1.88;;
60038;SDS011;45916;52.734;6.544;2023-03-05T04:09:42;6.05;;;1.75;;
60038;SDS011;45916;52.734;6.544;2023-03-05T04:12:08;5.55;;;1.92;;
60038;SDS011;45916;52.734;6.544;2023-03-05T04:14:34;7.65;;;2.00;;
60038;SDS011;45916;52.734;6.544;2023-03-05T04:17:00;7.35;;;2.20;;
60038;SDS011;45916;52.734;6.544;2023-03-05T04:19:26;7.20;;;2.15;;
60038;SDS011;45916;52.734;6.544;2023-03-05T04:21:52;5.55;;;1.80;;
60038;SDS011;45916;52.734;6.544;2023-03-05T04:24:18;8.13;;;1.80;;
60038;SDS011;45916;52.734;6.544;2023-03-05T04:26:43;7.47;;;2.30;;
60038;SDS011;45916;52.734;6.544;2023-03-05T04:29:09;7.65;;;2.30;;
60038;SDS011;45916;52.734;6.544;2023-03-05T04:31:35;4.50;;;1.80;;
60038;SDS011;45916;52.734;6.544;2023-03-05T04:34:00;5.72;;;2.08;;
60038;SDS011;45916;52.734;6.544;2023-03-05T04:36:26;5.88;;;1.90;;
60038;SDS011;45916;52.734;6.544;2023-03-05T04:38:52;5.45;;;1.65;;
60038;SDS011;45916;52.734;6.544;2023-03-05T04:41:18;7.55;;;1.85;;
60038;SDS011;45916;52.734;6.544;2023-03-05T04:43:43;4.93;;;1.60;;
60038;SDS011;45916;52.734;6.544;2023-03-05T04:46:09;5.80;;;1.52;;
60038;SDS011;45916;52.734;6.544;2023-03-05T04:48:35;7.55;;;1.92;;
60038;SDS011;45916;52.734;6.544;2023-03-05T04:51:00;4.03;;;2.03;;
60038;SDS011;45916;52.734;6.544;2023-03-05T04:53:26;5.90;;;1.80;;
60038;SDS011;45916;52.734;6.544;2023-03-05T04:55:55;4.03;;;1.75;;
60038;SDS011;45916;52.734;6.544;2023-03-05T04:58:21;6.03;;;1.83;;
60038;SDS011;45916;52.734;6.544;2023-03-05T05:00:47;9.70;;;2.63;;
60038;SDS011;45916;52.734;6.544;2023-03-05T05:03:13;6.53;;;2.40;;
60038;SDS011;45916;52.734;6.544;2023-03-05T05:05:39;4.47;;;1.80;;
60038;SDS011;45916;52.734;6.544;2023-03-05T05:08:04;5.53;;;1.90;;
60038;SDS011;45916;52.734;6.544;2023-03-05T05:10:30;6.65;;;2.65;;
60038;SDS011;45916;52.734;6.544;2023-03-05T05:12:56;5.82;;;2.20;;
60038;SDS011;45916;52.734;6.544;2023-03-05T05:15:22;5.53;;;2.25;;
60038;SDS011;45916;52.734;6.544;2023-03-05T05:17:48;7.95;;;2.67;;
60038;SDS011;45916;52.734;6.544;2023-03-05T05:20:14;8.50;;;2.10;;
60038;SDS011;45916;52.734;6.544;2023-03-05T05:22:41;8.43;;;2.60;;
60038;SDS011;45916;52.734;6.544;2023-03-05T05:25:07;5.70;;;2.00;;
60038;SDS011;45916;52.734;6.544;2023-03-05T05:27:34;10.27;;;2.42;;
60038;SDS011;45916;52.734;6.544;2023-03-05T05:30:00;7.75;;;2.08;;
60038;SDS011;45916;52.734;6.544;2023-03-05T05:32:26;6.60;;;2.17;;
60038;SDS011;45916;52.734;6.544;2023-03-05T05:34:53;8.70;;;3.00;;
60038;SDS011;45916;52.734;6.544;2023-03-05T05:37:22;6.03;;;2.17;;
60038;SDS011;45916;52.734;6.544;2023-03-05T05:39:49;5.53;;;2.47;;
60038;SDS011;45916;52.734;6.544;2023-03-05T05:42:18;6.78;;;2.17;;
60038;SDS011;45916;52.734;6.544;2023-03-05T05:44:47;6.45;;;2.40;;
60038;SDS011;45916;52.734;6.544;2023-03-05T05:47:13;7.20;;;2.42;;
60038;SDS011;45916;52.734;6.544;2023-03-05T05:49:40;4.88;;;2.50;;
60038;SDS011;45916;52.734;6.544;2023-03-05T05:52:06;7.75;;;2.63;;
60038;SDS011;45916;52.734;6.544;2023-03-05T05:54:32;8.10;;;1.90;;
60038;SDS011;45916;52.734;6.544;2023-03-05T05:56:57;8.10;;;2.33;;
60038;SDS011;45916;52.734;6.544;2023-03-05T05:59:23;7.93;;;2.63;;
60038;SDS011;45916;52.734;6.544;2023-03-05T06:01:49;4.97;;;2.42;;
60038;SDS011;45916;52.734;6.544;2023-03-05T06:04:14;7.80;;;2.90;;
60038;SDS011;45916;52.734;6.544;2023-03-05T06:06:40;7.40;;;2.50;;
60038;SDS011;45916;52.734;6.544;2023-03-05T06:09:06;7.13;;;2.92;;
60038;SDS011;45916;52.734;6.544;2023-03-05T06:11:31;6.45;;;2.40;;
60038;SDS011;45916;52.734;6.544;2023-03-05T06:13:58;6.15;;;2.67;;
60038;SDS011;45916;52.734;6.544;2023-03-05T06:16:26;5.75;;;2.38;;
60038;SDS011;45916;52.734;6.544;2023-03-05T06:18:52;7.57;;;2.78;;
60038;SDS011;45916;52.734;6.544;2023-03-05T06:21:19;7.00;;;2.55;;
60038;SDS011;45916;52.734;6.544;2023-03-05T06:23:46;7.78;;;2.90;;
60038;SDS011;45916;52.734;6.544;2023-03-05T06:26:14;5.55;;;2.78;;
60038;SDS011;45916;52.734;6.544;2023-03-05T06:28:42;7.55;;;3.00;;
60038;SDS011;45916;52.734;6.544;2023-03-05T06:31:12;6.82;;;2.78;;
60038;SDS011;45916;52.734;6.544;2023-03-05T06:33:39;6.05;;;2.58;;
60038;SDS011;45916;52.734;6.544;2023-03-05T06:36:06;6.65;;;3.20;;
60038;SDS011;45916;52.734;6.544;2023-03-05T06:38:34;6.80;;;2.83;;
60038;SDS011;45916;52.734;6.544;2023-03-05T06:41:00;8.60;;;3.05;;
60038;SDS011;45916;52.734;6.544;2023-03-05T06:43:29;6.80;;;2.80;;
60038;SDS011;45916;52.734;6.544;2023-03-05T06:46:04;6.07;;;2.50;;
60038;SDS011;45916;52.734;6.544;2023-03-05T06:48:32;7.25;;;3.05;;
60038;SDS011;45916;52.734;6.544;2023-03-05T06:50:58;7.63;;;3.70;;
60038;SDS011;45916;52.734;6.544;2023-03-05T06:53:25;6.70;;;2.40;;
60038;SDS011;45916;52.734;6.544;2023-03-05T06:55:51;7.45;;;2.78;;
60038;SDS011;45916;52.734;6.544;2023-03-05T06:58:17;5.82;;;2.00;;
60038;SDS011;45916;52.734;6.544;2023-03-05T07:00:43;5.70;;;1.70;;
60038;SDS011;45916;52.734;6.544;2023-03-05T07:03:09;6.60;;;2.30;;
60038;SDS011;45916;52.734;6.544;2023-03-05T07:05:39;10.15;;;3.92;;
60038;SDS011;45916;52.734;6.544;2023-03-05T07:08:07;9.68;;;4.22;;
60038;SDS011;45916;52.734;6.544;2023-03-05T07:10:40;5.30;;;2.28;;
60038;SDS011;45916;52.734;6.544;2023-03-05T07:13:07;6.72;;;2.35;;
60038;SDS011;45916;52.734;6.544;2023-03-05T07:15:33;6.68;;;2.42;;
60038;SDS011;45916;52.734;6.544;2023-03-05T07:18:03;7.05;;;2.35;;
60038;SDS011;45916;52.734;6.544;2023-03-05T07:20:29;5.63;;;2.88;;
60038;SDS011;45916;52.734;6.544;2023-03-05T07:22:54;6.00;;;2.65;;
60038;SDS011;45916;52.734;6.544;2023-03-05T07:25:20;5.60;;;2.17;;
60038;SDS011;45916;52.734;6.544;2023-03-05T07:27:46;7.30;;;2.33;;
60038;SDS011;45916;52.734;6.544;2023-03-05T07:30:13;6.72;;;2.40;;
60038;SDS011;45916;52.734;6.544;2023-03-05T07:32:39;6.68;;;2.38;;
60038;SDS011;45916;52.734;6.544;2023-03-05T07:35:05;5.85;;;2.53;;
60038;SDS011;45916;52.734;6.544;2023-03-05T07:37:31;5.75;;;2.38;;
60038;SDS011;45916;52.734;6.544;2023-03-05T07:39:57;5.70;;;2.28;;
60038;SDS011;45916;52.734;6.544;2023-03-05T07:42:23;7.60;;;2.35;;
60038;SDS011;45916;52.734;6.544;2023-03-05T07:44:49;6.30;;;2.28;;
60038;SDS011;45916;52.734;6.544;2023-03-05T07:47:14;6.85;;;2.67;;
60038;SDS011;45916;52.734;6.544;2023-03-05T07:49:40;5.25;;;1.90;;
60038;SDS011;45916;52.734;6.544;2023-03-05T07:52:06;4.18;;;1.88;;
60038;SDS011;45916;52.734;6.544;2023-03-05T07:54:33;8.65;;;1.85;;
60038;SDS011;45916;52.734;6.544;2023-03-05T07:57:02;5.70;;;2.00;;
60038;SDS011;45916;52.734;6.544;2023-03-05T07:59:29;5.85;;;1.50;;
60038;SDS011;45916;52.734;6.544;2023-03-05T08:01:55;6.85;;;2.03;;
60038;SDS011;45916;52.734;6.544;2023-03-05T08:04:21;5.97;;;1.80;;
60038;SDS011;45916;52.734;6.544;2023-03-05T08:06:46;7.50;;;1.75;;
60038;SDS011;45916;52.734;6.544;2023-03-05T08:09:14;6.25;;;1.50;;
60038;SDS011;45916;52.734;6.544;2023-03-05T08:11:40;7.50;;;1.80;;
60038;SDS011;45916;52.734;6.544;2023-03-05T08:14:06;6.93;;;1.70;;
60038;SDS011;45916;52.734;6.544;2023-03-05T08:16:31;4.40;;;1.38;;
60038;SDS011;45916;52.734;6.544;2023-03-05T08:18:57;6.10;;;1.52;;
60038;SDS011;45916;52.734;6.544;2023-03-05T08:21:24;4.80;;;1.55;;
60038;SDS011;45916;52.734;6.544;2023-03-05T08:23:55;7.22;;;1.70;;
60038;SDS011;45916;52.734;6.544;2023-03-05T08:26:26;7.53;;;1.70;;
60038;SDS011;45916;52.734;6.544;2023-03-05T08:28:53;4.97;;;1.20;;
60038;SDS011;45916;52.734;6.544;2023-03-05T08:31:20;6.50;;;1.30;;
60038;SDS011;45916;52.734;6.544;2023-03-05T08:33:51;3.42;;;1.02;;
60038;SDS011;45916;52.734;6.544;2023-03-05T08:36:18;5.38;;;1.67;;
60038;SDS011;45916;52.734;6.544;2023-03-05T08:38:44;5.47;;;1.35;;
60038;SDS011;45916;52.734;6.544;2023-03-05T08:41:11;6.03;;;1.70;;
60038;SDS011;45916;52.734;6.544;2023-03-05T08:43:37;4.88;;;1.40;;
60038;SDS011;45916;52.734;6.544;2023-03-05T08:46:03;6.07;;;1.58;;
60038;SDS011;45916;52.734;6.544;2023-03-05T08:48:31;6.57;;;1.70;;
60038;SDS011;45916;52.734;6.544;2023-03-05T08:51:02;3.70;;;1.45;;
60038;SDS011;45916;52.734;6.544;2023-03-05T08:53:32;6.85;;;1.17;;
60038;SDS011;45916;52.734;6.544;2023-03-05T08:55:58;4.85;;;1.20;;
60038;SDS011;45916;52.734;6.544;2023-03-05T08:58:24;6.85;;;1.40;;
60038;SDS011;45916;52.734;6.544;2023-03-05T09:00:50;4.93;;;1.45;;
60038;SDS011;45916;52.734;6.544;2023-03-05T09:03:16;8.60;;;1.17;;
60038;SDS011;45916;52.734;6.544;2023-03-05T09:05:41;4.65;;;1.20;;
60038;SDS011;45916;52.734;6.544;2023-03-05T09:08:07;6.18;;;1.77;;
60038;SDS011;45916;52.734;6.544;2023-03-05T09:10:33;5.57;;;1.50;;
60038;SDS011;45916;52.734;6.544;2023-03-05T09:12:58;4.00;;;1.35;;
60038;SDS011;45916;52.734;6.544;2023-03-05T09:15:24;4.40;;;1.23;;
60038;SDS011;45916;52.734;6.544;2023-03-05T09:17:50;5.68;;;1.27;;
60038;SDS011;45916;52.734;6.544;2023-03-05T09:20:16;5.93;;;1.33;;
60038;SDS011;45916;52.734;6.544;2023-03-05T09:22:41;7.25;;;1.50;;
60038;SDS011;45916;52.734;6.544;2023-03-05T09:25:07;4.15;;;1.40;;
60038;SDS011;45916;52.734;6.544;2023-03-05T09:27:34;5.77;;;1.83;;
60038;SDS011;45916;52.734;6.544;2023-03-05T09:30:00;5.82;;;1.20;;
60038;SDS011;45916;52.734;6.544;2023-03-05T09:32:28;7.60;;;1.58;;
60038;SDS011;45916;52.734;6.544;2023-03-05T09:34:57;4.43;;;1.30;;
60038;SDS011;45916;52.734;6.544;2023-03-05T09:37:23;5.97;;;1.42;;
60038;SDS011;45916;52.734;6.544;2023-03-05T09:39:49;4.93;;;1.17;;
60038;SDS011;45916;52.734;6.544;2023-03-05T09:42:28;7.80;;;1.50;;
60038;SDS011;45916;52.734;6.544;2023-03-05T09:55:44;6.50;;;1.23;;
60038;SDS011;45916;52.734;6.544;2023-03-05T09:58:14;5.88;;;1.20;;
60038;SDS011;45916;52.734;6.544;2023-03-05T10:00:56;6.53;;;1.23;;
60038;SDS011;45916;52.734;6.544;2023-03-05T10:08:28;7.97;;;2.10;;
60038;SDS011;45916;52.734;6.544;2023-03-05T10:11:05;4.80;;;1.30;;
60038;SDS011;45916;52.734;6.544;2023-03-05T10:13:41;8.80;;;1.85;;
60038;SDS011;45916;52.734;6.544;2023-03-05T10:28:08;7.30;;;1.33;;
60038;SDS011;45916;52.734;6.544;2023-03-05T10:46:35;6.35;;;1.40;;
60038;SDS011;45916;52.734;6.544;2023-03-05T10:51:43;5.60;;;1.30;;
60038;SDS011;45916;52.734;6.544;2023-03-05T10:54:30;6.05;;;1.73;;
60038;SDS011;45916;52.734;6.544;2023-03-05T10:57:17;5.93;;;1.50;;
60038;SDS011;45916;52.734;6.544;2023-03-05T10:59:47;7.20;;;1.60;;
60038;SDS011;45916;52.734;6.544;2023-03-05T11:02:25;7.60;;;1.73;;
60038;SDS011;45916;52.734;6.544;2023-03-05T11:04:51;6.28;;;1.80;;
60038;SDS011;45916;52.734;6.544;2023-03-05T11:12:26;4.63;;;1.33;;
60038;SDS011;45916;52.734;6.544;2023-03-05T11:17:38;6.93;;;1.50;;
60038;SDS011;45916;52.734;6.544;2023-03-05T11:23:02;4.28;;;1.60;;
60038;SDS011;45916;52.734;6.544;2023-03-05T11:28:17;4.65;;;1.00;;
60038;SDS011;45916;52.734;6.544;2023-03-05T11:30:53;6.18;;;1.35;;
60038;SDS011;45916;52.734;6.544;2023-03-05T11:33:21;4.00;;;1.25;;
60038;SDS011;45916;52.734;6.544;2023-03-05T11:35:57;6.28;;;1.30;;
60038;SDS011;45916;52.734;6.544;2023-03-05T11:38:44;6.22;;;1.77;;
60038;SDS011;45916;52.734;6.544;2023-03-05T11:41:28;2.72;;;1.13;;
60038;SDS011;45916;52.734;6.544;2023-03-05T11:43:57;3.95;;;1.30;;
60038;SDS011;45916;52.734;6.544;2023-03-05T11:46:27;5.18;;;0.90;;
60038;SDS011;45916;52.734;6.544;2023-03-05T11:48:58;2.53;;;0.98;;
60038;SDS011;45916;52.734;6.544;2023-03-05T11:51:25;8.15;;;1.20;;
60038;SDS011;45916;52.734;6.544;2023-03-05T11:54:02;5.07;;;1.33;;
60038;SDS011;45916;52.734;6.544;2023-03-05T11:56:34;4.38;;;1.00;;
60038;SDS011;45916;52.734;6.544;2023-03-05T12:01:44;5.67;;;1.30;;
60038;SDS011;45916;52.734;6.544;2023-03-05T12:04:15;4.53;;;1.23;;
60038;SDS011;45916;52.734;6.544;2023-03-05T12:06:43;6.15;;;1.10;;
60038;SDS011;45916;52.734;6.544;2023-03-05T12:09:24;5.38;;;1.13;;
60038;SDS011;45916;52.734;6.544;2023-03-05T12:12:03;6.47;;;1.42;;
60038;SDS011;45916;52.734;6.544;2023-03-05T12:14:36;3.58;;;1.15;;
60038;SDS011;45916;52.734;6.544;2023-03-05T12:17:10;4.25;;;1.10;;
60038;SDS011;45916;52.734;6.544;2023-03-05T12:22:37;4.75;;;1.08;;
60038;SDS011;45916;52.734;6.544;2023-03-05T12:27:57;4.13;;;1.20;;
60038;SDS011;45916;52.734;6.544;2023-03-05T12:32:59;4.43;;;1.45;;
60038;SDS011;45916;52.734;6.544;2023-03-05T12:35:27;3.03;;;1.00;;
60038;SDS011;45916;52.734;6.544;2023-03-05T12:38:00;2.47;;;0.80;;
60038;SDS011;45916;52.734;6.544;2023-03-05T12:40:47;5.55;;;1.10;;
60038;SDS011;45916;52.734;6.544;2023-03-05T12:43:32;4.45;;;0.80;;
60038;SDS011;45916;52.734;6.544;2023-03-05T12:46:20;5.68;;;1.33;;
60038;SDS011;45916;52.734;6.544;2023-03-05T12:48:47;3.80;;;1.20;;
60038;SDS011;45916;52.734;6.544;2023-03-05T12:51:13;2.95;;;0.90;;
60038;SDS011;45916;52.734;6.544;2023-03-05T12:53:50;3.10;;;1.08;;
60038;SDS011;45916;52.734;6.544;2023-03-05T12:56:18;5.10;;;2.05;;
60038;SDS011;45916;52.734;6.544;2023-03-05T12:58:49;6.30;;;1.60;;
60038;SDS011;45916;52.734;6.544;2023-03-05T13:01:28;4.88;;;1.05;;
60038;SDS011;45916;52.734;6.544;2023-03-05T13:04:03;4.40;;;1.38;;
60038;SDS011;45916;52.734;6.544;2023-03-05T13:06:35;4.80;;;1.42;;
60038;SDS011;45916;52.734;6.544;2023-03-05T13:09:22;2.75;;;1.10;;
60038;SDS011;45916;52.734;6.544;2023-03-05T13:11:51;3.42;;;1.20;;
60038;SDS011;45916;52.734;6.544;2023-03-05T13:16:55;4.75;;;1.33;;
60038;SDS011;45916;52.734;6.544;2023-03-05T13:19:21;7.20;;;1.63;;
60038;SDS011;45916;52.734;6.544;2023-03-05T13:22:00;4.72;;;1.52;;
60038;SDS011;45916;52.734;6.544;2023-03-05T13:24:28;5.07;;;1.38;;
60038;SDS011;45916;52.734;6.544;2023-03-05T13:26:54;4.82;;;1.42;;
60038;SDS011;45916;52.734;6.544;2023-03-05T13:29:21;6.32;;;1.98;;
60038;SDS011;45916;52.734;6.544;2023-03-05T13:32:02;4.38;;;1.42;;
60038;SDS011;45916;52.734;6.544;2023-03-05T13:35:10;6.28;;;1.77;;
60038;SDS011;45916;52.734;6.544;2023-03-05T13:37:39;4.80;;;1.30;;
60038;SDS011;45916;52.734;6.544;2023-03-05T13:40:19;6.78;;;1.80;;
60038;SDS011;45916;52.734;6.544;2023-03-05T13:42:47;6.18;;;1.60;;
60038;SDS011;45916;52.734;6.544;2023-03-05T13:45:24;5.43;;;1.30;;
60038;SDS011;45916;52.734;6.544;2023-03-05T13:48:00;5.30;;;1.33;;
60038;SDS011;45916;52.734;6.544;2023-03-05T13:53:18;6.15;;;1.80;;
60038;SDS011;45916;52.734;6.544;2023-03-05T13:55:48;6.13;;;1.75;;
60038;SDS011;45916;52.734;6.544;2023-03-05T14:01:32;5.15;;;1.27;;
60038;SDS011;45916;52.734;6.544;2023-03-05T14:06:40;66.60;;;8.52;;
60038;SDS011;45916;52.734;6.544;2023-03-05T14:09:19;5.20;;;1.05;;
60038;SDS011;45916;52.734;6.544;2023-03-05T14:11:57;3.35;;;0.95;;
60038;SDS011;45916;52.734;6.544;2023-03-05T14:14:28;4.60;;;1.30;;
60038;SDS011;45916;52.734;6.544;2023-03-05T14:19:47;5.25;;;1.40;;
60038;SDS011;45916;52.734;6.544;2023-03-05T14:22:33;6.20;;;1.50;;
60038;SDS011;45916;52.734;6.544;2023-03-05T14:25:02;5.40;;;1.42;;
60038;SDS011;45916;52.734;6.544;2023-03-05T14:27:30;4.40;;;1.05;;
60038;SDS011;45916;52.734;6.544;2023-03-05T14:29:59;7.03;;;1.35;;
60038;SDS011;45916;52.734;6.544;2023-03-05T14:32:34;4.18;;;1.48;;
60038;SDS011;45916;52.734;6.544;2023-03-05T14:35:02;5.20;;;1.50;;
60038;SDS011;45916;52.734;6.544;2023-03-05T14:37:34;4.78;;;1.27;;
60038;SDS011;45916;52.734;6.544;2023-03-05T14:40:06;3.90;;;1.40;;
60038;SDS011;45916;52.734;6.544;2023-03-05T14:45:22;4.28;;;1.20;;
60038;SDS011;45916;52.734;6.544;2023-03-05T14:48:06;3.90;;;1.50;;
60038;SDS011;45916;52.734;6.544;2023-03-05T14:53:28;7.78;;;1.60;;
60038;SDS011;45916;52.734;6.544;2023-03-05T14:56:16;6.40;;;1.90;;
60038;SDS011;45916;52.734;6.544;2023-03-05T14:58:42;5.97;;;1.50;;
60038;SDS011;45916;52.734;6.544;2023-03-05T15:01:09;4.40;;;1.30;;
60038;SDS011;45916;52.734;6.544;2023-03-05T15:03:36;6.95;;;1.88;;
60038;SDS011;45916;52.734;6.544;2023-03-05T15:06:04;4.90;;;1.38;;
60038;SDS011;45916;52.734;6.544;2023-03-05T15:08:30;6.15;;;1.42;;
60038;SDS011;45916;52.734;6.544;2023-03-05T15:10:57;5.15;;;1.75;;
60038;SDS011;45916;52.734;6.544;2023-03-05T15:13:23;5.20;;;1.45;;
60038;SDS011;45916;52.734;6.544;2023-03-05T15:15:50;5.00;;;1.92;;
60038;SDS011;45916;52.734;6.544;2023-03-05T15:18:17;5.82;;;1.63;;
60038;SDS011;45916;52.734;6.544;2023-03-05T15:20:44;5.93;;;1.63;;
60038;SDS011;45916;52.734;6.544;2023-03-05T15:23:12;4.18;;;1.38;;
60038;SDS011;45916;52.734;6.544;2023-03-05T15:25:39;3.97;;;1.50;;
60038;SDS011;45916;52.734;6.544;2023-03-05T15:28:04;4.80;;;1.30;;
60038;SDS011;45916;52.734;6.544;2023-03-05T15:30:34;6.30;;;1.75;;
60038;SDS011;45916;52.734;6.544;2023-03-05T15:33:03;4.97;;;1.63;;
60038;SDS011;45916;52.734;6.544;2023-03-05T15:35:32;4.93;;;1.60;;
60038;SDS011;45916;52.734;6.544;2023-03-05T15:37:59;7.55;;;1.83;;
60038;SDS011;45916;52.734;6.544;2023-03-05T15:40:25;3.75;;;1.40;;
60038;SDS011;45916;52.734;6.544;2023-03-05T15:42:55;5.15;;;1.70;;
60038;SDS011;45916;52.734;6.544;2023-03-05T15:45:25;8.00;;;2.10;;
60038;SDS011;45916;52.734;6.544;2023-03-05T15:47:52;6.65;;;2.13;;
60038;SDS011;45916;52.734;6.544;2023-03-05T15:50:20;6.53;;;2.10;;
60038;SDS011;45916;52.734;6.544;2023-03-05T15:52:46;7.77;;;2.10;;
60038;SDS011;45916;52.734;6.544;2023-03-05T15:57:43;5.43;;;1.52;;
60038;SDS011;45916;52.734;6.544;2023-03-05T16:00:11;4.20;;;1.40;;
60038;SDS011;45916;52.734;6.544;2023-03-05T16:02:38;6.90;;;2.50;;
60038;SDS011;45916;52.734;6.544;2023-03-05T16:05:04;5.13;;;1.60;;
60038;SDS011;45916;52.734;6.544;2023-03-05T16:07:30;7.20;;;1.88;;
60038;SDS011;45916;52.734;6.544;2023-03-05T16:09:59;9.55;;;2.00;;
60038;SDS011;45916;52.734;6.544;2023-03-05T16:12:26;4.32;;;1.65;;
60038;SDS011;45916;52.734;6.544;2023-03-05T16:14:55;6.22;;;1.73;;
60038;SDS011;45916;52.734;6.544;2023-03-05T16:17:21;61.70;;;7.68;;
60038;SDS011;45916;52.734;6.544;2023-03-05T16:19:48;7.57;;;1.98;;
60038;SDS011;45916;52.734;6.544;2023-03-05T16:22:17;9.73;;;2.00;;
60038;SDS011;45916;52.734;6.544;2023-03-05T16:24:43;6.35;;;1.73;;
60038;SDS011;45916;52.734;6.544;2023-03-05T16:27:09;6.88;;;2.47;;
60038;SDS011;45916;52.734;6.544;2023-03-05T16:29:38;6.13;;;1.88;;
60038;SDS011;45916;52.734;6.544;2023-03-05T16:32:04;7.63;;;2.25;;